Terminal Aerodrome Forecast
Issued by NWS North Platte, NE

Home | Current Version | Previous Version | Graphics & Text | Print | Product List | Glossary Off
Versions: 1 2 3 4 5 6 7 8 9 10 11 12 13

000
FTUS43 KLBF 301100
TAFVTN
TAF
KVTN 301126Z 3012/0112 VRB05KT P6SM BKN200
     FM302000 08010KT P6SM BKN120
      TEMPO 3021/0101 5SM -TSRA OVC120CB
     FM010300 08005KT P6SM SCT120=

USA.gov is the U.S. government's official web portal to all federal, state and local government web resources and services.